createdAt,value
2018-11-03T00:00:59.260Z,10.60
2018-11-03T00:03:28.280Z,10.43
2018-11-03T00:05:57.198Z,11.40
2018-11-03T00:08:25.964Z,9.93
2018-11-03T00:10:54.623Z,10.50
2018-11-03T00:13:23.492Z,9.97
2018-11-03T00:15:52.100Z,10.67
2018-11-03T00:18:20.705Z,10.13
2018-11-03T00:20:49.311Z,9.43
2018-11-03T00:23:24.496Z,9.93
2018-11-03T00:25:53.107Z,10.33
2018-11-03T00:28:21.720Z,10.50
2018-11-03T00:30:50.348Z,9.63
2018-11-03T00:33:18.945Z,10.10
2018-11-03T00:35:48.126Z,9.70
2018-11-03T00:38:23.821Z,10.43
2018-11-03T00:40:55.086Z,10.03
2018-11-03T00:43:29.088Z,9.43
2018-11-03T00:46:02.365Z,8.97
2018-11-03T00:48:33.471Z,10.60
2018-11-03T00:51:04.778Z,10.90
2018-11-03T00:53:36.461Z,11.60
2018-11-03T00:56:06.562Z,10.83
2018-11-03T00:58:35.889Z,10.33
2018-11-03T01:01:04.728Z,10.77
2018-11-03T01:03:35.058Z,9.73
2018-11-03T01:06:10.001Z,10.27
2018-11-03T01:08:41.026Z,10.40
2018-11-03T01:11:10.877Z,10.43
2018-11-03T01:13:44.934Z,10.03
2018-11-03T01:16:19.662Z,10.87
2018-11-03T01:18:54.665Z,10.87
2018-11-03T01:21:25.792Z,10.63
2018-11-03T01:23:57.167Z,10.73
2018-11-03T01:26:29.115Z,10.40
2018-11-03T01:29:00.063Z,10.83
2018-11-03T01:31:31.293Z,11.67
2018-11-03T01:34:02.393Z,10.57
2018-11-03T01:36:32.344Z,10.87
2018-11-03T01:39:01.656Z,10.73
2018-11-03T01:41:30.869Z,10.40
2018-11-03T01:43:59.488Z,10.60
2018-11-03T01:46:28.082Z,10.50
2018-11-03T01:48:56.751Z,10.60
2018-11-03T01:51:25.324Z,10.17
2018-11-03T01:53:54.475Z,10.17
2018-11-03T01:56:23.151Z,10.43
2018-11-03T01:58:51.748Z,10.97
2018-11-03T02:01:20.824Z,10.63
2018-11-03T02:03:53.943Z,10.40
2018-11-03T02:06:22.945Z,10.23
2018-11-03T02:08:56.323Z,10.27
2018-11-03T02:11:27.117Z,11.43
2018-11-03T02:13:56.700Z,10.60
2018-11-03T02:16:25.304Z,10.90
2018-11-03T02:18:54.289Z,10.97
2018-11-03T02:21:23.265Z,10.97
2018-11-03T02:23:54.466Z,10.63
2018-11-03T02:26:28.444Z,10.73
2018-11-03T02:29:05.069Z,10.57
2018-11-03T02:31:40.010Z,10.70
2018-11-03T02:34:14.608Z,10.27
2018-11-03T02:36:48.220Z,10.33
2018-11-03T02:39:21.367Z,10.20
2018-11-03T02:41:56.268Z,10.87
2018-11-03T02:44:25.157Z,10.97
2018-11-03T02:46:53.857Z,10.47
2018-11-03T02:49:22.487Z,10.73
2018-11-03T02:51:51.377Z,10.60
2018-11-03T02:54:24.486Z,11.07
2018-11-03T02:56:56.107Z,11.87
2018-11-03T02:59:27.318Z,11.83
2018-11-03T03:01:59.375Z,11.63
2018-11-03T03:04:31.492Z,11.27
2018-11-03T03:07:04.418Z,12.47
2018-11-03T03:09:37.622Z,11.97
2018-11-03T03:12:11.838Z,11.87
2018-11-03T03:14:44.787Z,11.37
2018-11-03T03:17:16.462Z,12.20
2018-11-03T03:19:50.516Z,10.13
2018-11-03T03:22:20.899Z,11.90
2018-11-03T03:24:52.624Z,11.37
2018-11-03T03:27:22.520Z,10.83
2018-11-03T03:29:51.475Z,11.63
2018-11-03T03:32:20.069Z,10.83
2018-11-03T03:34:49.236Z,11.63
2018-11-03T03:37:21.361Z,11.20
2018-11-03T03:39:53.166Z,11.53
2018-11-03T03:42:24.259Z,11.50
2018-11-03T03:44:56.578Z,11.87
2018-11-03T03:47:28.167Z,11.37
2018-11-03T03:49:56.930Z,10.63
2018-11-03T03:52:25.760Z,11.47
2018-11-03T03:54:54.392Z,11.77
2018-11-03T03:57:23.335Z,10.60
2018-11-03T03:59:52.011Z,10.93
2018-11-03T04:02:20.751Z,10.93
2018-11-03T04:04:49.333Z,11.23
2018-11-03T04:07:17.960Z,11.33
2018-11-03T04:09:46.645Z,11.13
2018-11-03T04:12:15.401Z,11.20
2018-11-03T04:14:44.247Z,11.03
2018-11-03T04:17:12.908Z,10.93
2018-11-03T04:19:41.615Z,10.50
2018-11-03T04:22:10.414Z,11.07
2018-11-03T04:24:39.032Z,11.10
2018-11-03T04:27:07.746Z,10.87
2018-11-03T04:29:36.485Z,11.43
2018-11-03T04:32:05.103Z,11.07
2018-11-03T04:34:34.123Z,10.60
2018-11-03T04:37:02.687Z,10.47
2018-11-03T04:39:31.837Z,10.30
2018-11-03T04:42:00.416Z,11.63
2018-11-03T04:44:29.086Z,10.87
2018-11-03T04:46:58.224Z,10.70
2018-11-03T04:49:26.796Z,10.63
2018-11-03T04:51:57.177Z,11.43
2018-11-03T04:54:25.785Z,10.17
2018-11-03T04:56:54.368Z,9.97
2018-11-03T04:59:22.956Z,10.23
2018-11-03T05:01:51.548Z,11.50
2018-11-03T05:04:20.160Z,10.33
2018-11-03T05:06:51.816Z,10.83
2018-11-03T05:09:20.391Z,11.37
2018-11-03T05:11:48.964Z,10.30
2018-11-03T05:14:17.544Z,10.67
2018-11-03T05:16:46.152Z,10.47
2018-11-03T05:19:14.723Z,10.83
2018-11-03T05:21:43.318Z,11.13
2018-11-03T05:24:11.934Z,10.83
2018-11-03T05:26:40.529Z,11.57
2018-11-03T05:29:09.556Z,12.03
2018-11-03T05:31:38.136Z,11.37
2018-11-03T05:34:06.738Z,11.10
2018-11-03T05:36:35.361Z,11.37
2018-11-03T05:39:05.010Z,12.60
2018-11-03T05:41:33.579Z,10.87
2018-11-03T05:44:02.183Z,12.23
2018-11-03T05:46:30.829Z,11.60
2018-11-03T05:48:59.428Z,10.70
2018-11-03T05:51:28.009Z,11.80
2018-11-03T05:53:56.600Z,10.33
2018-11-03T05:56:25.195Z,11.07
2018-11-03T05:58:53.857Z,10.50
2018-11-03T06:01:22.437Z,11.17
2018-11-03T06:03:51.035Z,11.67
2018-11-03T06:06:19.652Z,10.70
2018-11-03T06:08:48.372Z,11.47
2018-11-03T06:11:16.913Z,10.77
2018-11-03T06:13:45.504Z,11.67
2018-11-03T06:16:14.097Z,11.00
2018-11-03T06:18:42.703Z,10.97
2018-11-03T06:21:11.296Z,11.23
2018-11-03T06:23:40.012Z,12.50
2018-11-03T06:26:08.736Z,12.70
2018-11-03T06:28:37.325Z,11.90
2018-11-03T06:31:06.944Z,12.30
2018-11-03T06:33:35.545Z,12.07
2018-11-03T06:36:04.144Z,11.83
2018-11-03T06:38:32.767Z,11.00
2018-11-03T06:41:01.364Z,12.00
2018-11-03T06:43:29.972Z,11.50
2018-11-03T06:45:58.555Z,10.93
2018-11-03T06:48:27.156Z,12.33
2018-11-03T06:50:55.797Z,12.27
2018-11-03T06:53:24.376Z,11.17
2018-11-03T06:55:52.986Z,12.03
2018-11-03T06:58:21.548Z,12.50
2018-11-03T07:00:50.143Z,10.70
2018-11-03T07:03:18.748Z,12.23
2018-11-03T07:05:47.360Z,11.83
2018-11-03T07:08:15.947Z,11.50
2018-11-03T07:10:44.550Z,11.47
2018-11-03T07:13:13.181Z,11.47
2018-11-03T07:15:41.782Z,10.87
2018-11-03T07:18:10.379Z,12.13
2018-11-03T07:20:38.998Z,10.60
2018-11-03T07:23:07.613Z,11.27
2018-11-03T07:25:36.247Z,10.97
2018-11-03T07:28:05.200Z,12.00
2018-11-03T07:30:33.784Z,12.87
2018-11-03T07:33:02.365Z,11.23
2018-11-03T07:35:30.962Z,13.73
2018-11-03T07:37:59.541Z,11.90
2018-11-03T07:40:28.128Z,11.03
2018-11-03T07:42:56.717Z,12.53
2018-11-03T07:45:25.309Z,12.03
2018-11-03T07:47:53.965Z,12.47
2018-11-03T07:50:22.496Z,12.37
2018-11-03T07:52:51.079Z,12.10
2018-11-03T07:55:19.695Z,11.80
2018-11-03T07:57:48.275Z,12.93
2018-11-03T08:00:16.912Z,11.67
2018-11-03T08:02:45.487Z,11.70
2018-11-03T08:05:14.104Z,12.00
2018-11-03T08:07:42.715Z,13.10
2018-11-03T08:10:11.936Z,12.90
2018-11-03T08:12:40.569Z,19.93
2018-11-03T08:15:10.299Z,13.27
2018-11-03T08:17:39.190Z,13.07
2018-11-03T08:20:08.986Z,13.03
2018-11-03T08:22:37.584Z,12.70
2018-11-03T08:25:06.738Z,12.80
2018-11-03T08:27:35.341Z,12.83
2018-11-03T08:30:04.210Z,13.80
2018-11-03T08:32:32.812Z,13.43
2018-11-03T08:35:01.408Z,14.20
2018-11-03T08:37:30.020Z,12.77
2018-11-03T08:39:58.655Z,14.63
2018-11-03T08:42:27.248Z,13.77
2018-11-03T08:44:55.874Z,14.17
2018-11-03T08:47:24.495Z,14.30
2018-11-03T08:49:53.114Z,14.03
2018-11-03T08:52:21.707Z,14.57
2018-11-03T08:54:50.308Z,14.20
2018-11-03T08:57:18.948Z,14.60
2018-11-03T08:59:47.617Z,14.43
2018-11-03T09:02:16.204Z,16.13
2018-11-03T09:04:44.836Z,15.20
2018-11-03T09:07:13.611Z,15.33
2018-11-03T09:09:42.089Z,13.97
2018-11-03T09:12:10.668Z,15.20
2018-11-03T09:14:39.297Z,15.27
2018-11-03T09:17:07.972Z,15.20
2018-11-03T09:19:36.580Z,13.87
2018-11-03T09:22:05.220Z,15.37
2018-11-03T09:24:33.832Z,13.47
2018-11-03T09:27:02.470Z,15.17
2018-11-03T09:29:31.067Z,14.57
2018-11-03T09:31:59.694Z,14.87
2018-11-03T09:34:28.275Z,15.57
2018-11-03T09:36:56.913Z,15.70
2018-11-03T09:39:25.487Z,16.53
2018-11-03T09:41:54.107Z,15.30
2018-11-03T09:44:22.741Z,14.60
2018-11-03T09:46:51.341Z,14.83
2018-11-03T09:49:19.936Z,14.30
2018-11-03T09:51:48.512Z,15.63
2018-11-03T09:54:17.125Z,15.27
2018-11-03T09:56:45.810Z,15.43
2018-11-03T09:59:14.331Z,16.20
2018-11-03T10:01:42.937Z,14.40
2018-11-03T10:04:11.509Z,16.37
2018-11-03T10:06:40.193Z,16.00
2018-11-03T10:09:08.885Z,14.87
2018-11-03T10:11:37.485Z,15.17
2018-11-03T10:14:06.197Z,14.57
2018-11-03T10:16:34.779Z,16.13
2018-11-03T10:19:03.379Z,15.77
2018-11-03T10:21:31.933Z,14.80
2018-11-03T10:24:00.515Z,15.80
2018-11-03T10:26:29.136Z,16.10
2018-11-03T10:28:57.708Z,16.50
2018-11-03T10:31:26.300Z,19.63
2018-11-03T10:33:54.915Z,17.77
2018-11-03T10:36:23.592Z,19.30
2018-11-03T10:38:52.208Z,19.70
2018-11-03T10:41:20.786Z,18.97
2018-11-03T10:43:49.339Z,17.97
2018-11-03T10:46:18.028Z,19.87
2018-11-03T10:48:46.567Z,17.10
2018-11-03T10:51:15.192Z,18.67
2018-11-03T10:53:43.831Z,17.40
2018-11-03T10:56:12.416Z,17.23
2018-11-03T10:58:40.978Z,16.47
2018-11-03T11:01:14.858Z,17.80
2018-11-03T11:03:48.629Z,17.10
2018-11-03T11:06:22.567Z,18.20
2018-11-03T11:08:56.531Z,17.57
2018-11-03T11:11:30.324Z,20.00
2018-11-03T11:13:58.927Z,18.10
2018-11-03T11:16:27.594Z,15.93
2018-11-03T11:18:56.136Z,19.73
2018-11-03T11:21:24.715Z,16.83
2018-11-03T11:23:53.443Z,16.07
2018-11-03T11:26:21.901Z,16.23
2018-11-03T11:28:50.504Z,17.63
2018-11-03T11:31:19.185Z,15.93
2018-11-03T11:33:47.752Z,16.00
2018-11-03T11:36:16.328Z,15.07
2018-11-03T11:38:44.912Z,16.10
2018-11-03T11:41:13.492Z,16.50
2018-11-03T11:43:42.100Z,15.47
2018-11-03T11:46:10.717Z,15.87
2018-11-03T11:48:39.312Z,15.73
2018-11-03T11:51:07.907Z,16.17
2018-11-03T11:53:36.485Z,15.70
2018-11-03T11:56:05.153Z,14.93
2018-11-03T11:58:33.776Z,15.13
2018-11-03T12:01:02.368Z,14.53
2018-11-03T12:03:30.959Z,15.17
2018-11-03T12:05:59.563Z,16.53
2018-11-03T12:08:28.188Z,15.90
2018-11-03T12:10:56.749Z,15.73
2018-11-03T12:13:25.373Z,15.03
2018-11-03T12:15:53.996Z,16.20
2018-11-03T12:18:22.560Z,16.37
2018-11-03T12:20:51.180Z,16.00
2018-11-03T12:23:19.761Z,16.03
2018-11-03T12:25:48.371Z,15.80
2018-11-03T12:28:16.913Z,15.27
2018-11-03T12:30:45.578Z,14.93
2018-11-03T12:33:14.197Z,14.73
2018-11-03T12:35:42.788Z,14.87
2018-11-03T12:38:11.391Z,13.40
2018-11-03T12:40:40.030Z,14.80
2018-11-03T12:43:08.613Z,16.20
2018-11-03T12:45:37.203Z,16.80
2018-11-03T12:48:06.073Z,14.37
2018-11-03T12:50:34.656Z,14.60
2018-11-03T12:53:03.228Z,15.77
2018-11-03T12:55:31.801Z,15.63
2018-11-03T12:58:00.373Z,15.73
2018-11-03T13:00:28.963Z,16.77
2018-11-03T13:02:57.557Z,16.13
2018-11-03T13:05:26.180Z,15.87
2018-11-03T13:07:54.780Z,15.10
2018-11-03T13:10:23.381Z,14.93
2018-11-03T13:12:51.965Z,15.87
2018-11-03T13:15:20.578Z,16.33
2018-11-03T13:17:49.164Z,15.73
2018-11-03T13:20:17.756Z,14.73
2018-11-03T13:22:46.415Z,16.63
2018-11-03T13:25:15.000Z,16.23
2018-11-03T13:27:46.531Z,16.23
2018-11-03T13:30:15.532Z,15.77
2018-11-03T13:32:44.126Z,16.70
2018-11-03T13:35:13.586Z,16.53
2018-11-03T13:37:42.229Z,15.20
2018-11-03T13:40:12.247Z,14.97
2018-11-03T13:42:41.060Z,15.53
2018-11-03T13:45:10.172Z,14.27
2018-11-03T13:47:39.300Z,16.03
2018-11-03T13:50:11.289Z,14.93
2018-11-03T13:52:40.528Z,14.57
2018-11-03T13:55:09.753Z,15.10
2018-11-03T13:57:38.526Z,18.10
2018-11-03T14:00:08.044Z,16.00
2018-11-03T14:02:36.660Z,16.17
2018-11-03T14:05:05.740Z,17.03
2018-11-03T14:07:34.397Z,16.47
2018-11-03T14:10:03.944Z,17.40
2018-11-03T14:12:32.639Z,17.17
2018-11-03T14:15:01.221Z,16.83
2018-11-03T14:17:29.815Z,16.77
2018-11-03T14:19:58.404Z,17.17
2018-11-03T14:22:26.980Z,15.90
2018-11-03T14:24:55.558Z,18.70
2018-11-03T14:27:24.149Z,17.67
2018-11-03T14:29:52.772Z,16.70
2018-11-03T14:32:21.352Z,17.27
2018-11-03T14:34:49.947Z,17.13
2018-11-03T14:37:18.524Z,18.57
2018-11-03T14:39:47.108Z,16.97
2018-11-03T14:42:15.688Z,16.73
2018-11-03T14:44:44.360Z,17.40
2018-11-03T14:47:12.893Z,17.17
2018-11-03T14:49:41.481Z,17.47
2018-11-03T14:52:10.085Z,16.30
2018-11-03T14:54:38.685Z,16.57
2018-11-03T14:57:07.392Z,14.93
2018-11-03T14:59:35.988Z,13.80
2018-11-03T15:02:04.621Z,13.97
2018-11-03T15:04:33.227Z,13.73
2018-11-03T15:07:01.829Z,14.27
2018-11-03T15:09:30.437Z,14.70
2018-11-03T15:11:59.010Z,15.50
2018-11-03T15:14:27.666Z,14.30
2018-11-03T15:16:56.201Z,15.13
2018-11-03T15:19:24.773Z,13.47
2018-11-03T15:21:53.360Z,14.70
2018-11-03T15:24:21.956Z,14.50
2018-11-03T15:26:50.513Z,13.40
2018-11-03T15:29:19.112Z,14.73
2018-11-03T15:31:47.767Z,13.87
2018-11-03T15:34:16.379Z,13.97
2018-11-03T15:36:44.963Z,14.23
2018-11-03T15:39:13.588Z,13.33
2018-11-03T15:41:42.180Z,14.60
2018-11-03T15:44:10.771Z,14.37
2018-11-03T15:46:39.360Z,14.73
2018-11-03T15:49:07.973Z,16.57
2018-11-03T15:51:36.583Z,17.20
2018-11-03T15:54:05.344Z,15.47
2018-11-03T15:56:33.965Z,15.53
2018-11-03T15:59:02.553Z,15.33
2018-11-03T16:01:31.136Z,16.40
2018-11-03T16:03:59.771Z,16.23
2018-11-03T16:06:28.784Z,15.83
2018-11-03T16:08:57.485Z,16.47
2018-11-03T16:11:26.068Z,17.73
2018-11-03T16:13:54.685Z,18.67
2018-11-03T16:16:23.263Z,18.47
2018-11-03T16:18:51.916Z,17.63
2018-11-03T16:21:20.493Z,18.87
2018-11-03T16:23:49.065Z,18.63
2018-11-03T16:26:17.649Z,18.70
2018-11-03T16:28:46.250Z,19.80
2018-11-03T16:31:14.821Z,19.57
2018-11-03T16:33:43.419Z,20.40
2018-11-03T16:36:12.038Z,18.87
2018-11-03T16:38:40.635Z,19.73
2018-11-03T16:41:09.265Z,19.93
2018-11-03T16:43:37.877Z,19.57
2018-11-03T16:46:06.472Z,19.23
2018-11-03T16:48:35.053Z,19.93
2018-11-03T16:51:03.681Z,17.33
2018-11-03T16:53:32.264Z,19.40
2018-11-03T16:56:00.849Z,18.33
2018-11-03T16:58:29.512Z,18.33
2018-11-03T17:00:58.048Z,18.10
2018-11-03T17:03:26.649Z,19.03
2018-11-03T17:05:55.256Z,18.90
2018-11-03T17:08:23.867Z,20.20
2018-11-03T17:10:52.466Z,19.77
2018-11-03T17:13:21.076Z,19.37
2018-11-03T17:15:49.677Z,19.63
2018-11-03T17:18:18.263Z,19.07
2018-11-03T17:20:46.881Z,19.47
2018-11-03T17:23:15.516Z,19.50
2018-11-03T17:25:44.079Z,19.03
2018-11-03T17:28:12.676Z,18.70
2018-11-03T17:30:41.299Z,20.57
2018-11-03T17:33:09.915Z,19.63
2018-11-03T17:35:38.512Z,20.23
2018-11-03T17:38:07.164Z,20.97
2018-11-03T17:40:35.753Z,22.47
2018-11-03T17:43:04.385Z,23.90
2018-11-03T17:45:32.949Z,22.17
2018-11-03T17:48:01.510Z,22.47
2018-11-03T17:50:30.108Z,28.10
2018-11-03T17:52:58.679Z,29.20
2018-11-03T17:55:27.242Z,23.30
2018-11-03T17:57:55.840Z,23.13
2018-11-03T18:00:25.631Z,23.93
2018-11-03T18:02:54.020Z,24.20
2018-11-03T18:05:22.617Z,21.63
2018-11-03T18:07:51.194Z,18.43
2018-11-03T18:10:19.852Z,20.40
2018-11-03T18:12:48.432Z,18.03
2018-11-03T18:15:17.081Z,19.43
2018-11-03T18:17:45.692Z,18.83
2018-11-03T18:20:14.330Z,19.40
2018-11-03T18:22:42.910Z,20.13
2018-11-03T18:25:11.493Z,21.27
2018-11-03T18:27:40.147Z,20.10
2018-11-03T18:30:09.965Z,22.10
2018-11-03T18:32:38.925Z,21.13
2018-11-03T18:35:07.580Z,23.77
2018-11-03T18:37:36.257Z,24.00
2018-11-03T18:40:05.257Z,22.43
2018-11-03T18:42:33.838Z,23.80
2018-11-03T18:45:02.425Z,23.73
2018-11-03T18:47:30.997Z,24.23
2018-11-03T18:49:59.569Z,26.07
2018-11-03T18:52:28.148Z,26.33
2018-11-03T18:54:56.700Z,24.90
2018-11-03T18:57:25.277Z,24.93
2018-11-03T18:59:53.864Z,25.23
2018-11-03T19:02:22.544Z,25.60
2018-11-03T19:04:51.056Z,26.00
2018-11-03T19:07:19.699Z,27.03
2018-11-03T19:09:48.342Z,25.93
2018-11-03T19:12:16.965Z,26.30
2018-11-03T19:14:45.579Z,27.10
2018-11-03T19:17:14.232Z,26.53
2018-11-03T19:19:42.813Z,26.90
2018-11-03T19:22:11.483Z,27.07
2018-11-03T19:24:40.061Z,28.17
2018-11-03T19:27:08.662Z,29.00
2018-11-03T19:29:37.254Z,28.00
2018-11-03T19:32:06.407Z,27.30
2018-11-03T19:34:35.016Z,26.53
2018-11-03T19:37:03.605Z,25.93
2018-11-03T19:39:32.196Z,28.13
2018-11-03T19:42:00.813Z,27.90
2018-11-03T19:44:29.433Z,27.27
2018-11-03T19:46:58.072Z,26.47
2018-11-03T19:49:26.675Z,25.63
2018-11-03T19:51:55.322Z,27.37
2018-11-03T19:54:23.952Z,25.90
2018-11-03T19:56:52.590Z,27.57
2018-11-03T19:59:21.241Z,27.97
2018-11-03T20:01:50.009Z,26.93
2018-11-03T20:04:18.656Z,28.77
2018-11-03T20:06:47.261Z,27.60
2018-11-03T20:09:15.896Z,27.87
2018-11-03T20:11:44.496Z,27.63
2018-11-03T20:14:13.154Z,25.63
2018-11-03T20:16:41.811Z,26.20
2018-11-03T20:19:10.405Z,26.63
2018-11-03T20:21:39.082Z,25.73
2018-11-03T20:24:07.834Z,26.53
2018-11-03T20:26:36.532Z,22.50
2018-11-03T20:29:05.144Z,23.07
2018-11-03T20:31:33.769Z,24.43
2018-11-03T20:34:02.467Z,24.47
2018-11-03T20:36:31.091Z,25.03
2018-11-03T20:38:59.681Z,25.90
2018-11-03T20:41:28.288Z,24.70
2018-11-03T20:43:56.939Z,26.37
2018-11-03T20:46:25.544Z,24.03
2018-11-03T20:48:54.192Z,25.40
2018-11-03T20:51:22.821Z,23.47
2018-11-03T20:53:51.496Z,24.93
2018-11-03T20:56:20.040Z,21.77
2018-11-03T20:58:48.640Z,24.63
2018-11-03T21:01:17.252Z,22.47
2018-11-03T21:03:45.853Z,21.23
2018-11-03T21:06:14.436Z,22.33
2018-11-03T21:08:43.095Z,20.93
2018-11-03T21:11:11.697Z,20.00
2018-11-03T21:13:40.369Z,20.87
2018-11-03T21:16:08.960Z,22.33
2018-11-03T21:18:37.558Z,21.07
2018-11-03T21:21:06.217Z,20.63
2018-11-03T21:23:34.861Z,21.83
2018-11-03T21:26:03.469Z,21.60
2018-11-03T21:28:32.100Z,19.43
2018-11-03T21:31:00.712Z,19.40
2018-11-03T21:33:29.323Z,21.10
2018-11-03T21:35:57.936Z,19.40
2018-11-03T21:38:26.563Z,32.70
2018-11-03T21:40:55.138Z,32.60
2018-11-03T21:43:23.760Z,22.93
2018-11-03T21:45:52.347Z,20.17
2018-11-03T21:48:20.933Z,22.97
2018-11-03T21:50:49.604Z,26.07
2018-11-03T21:53:18.186Z,22.40
2018-11-03T21:55:46.838Z,21.17
2018-11-03T21:58:15.458Z,20.37
2018-11-03T22:00:44.120Z,21.97
2018-11-03T22:03:12.721Z,21.07
2018-11-03T22:05:41.353Z,21.87
2018-11-03T22:08:09.933Z,23.53
2018-11-03T22:10:38.547Z,23.03
2018-11-03T22:13:07.998Z,22.67
2018-11-03T22:15:37.617Z,22.43
2018-11-03T22:18:07.124Z,21.77
2018-11-03T22:20:36.590Z,22.03
2018-11-03T22:23:06.340Z,21.73
2018-11-03T22:25:35.807Z,21.63
2018-11-03T22:28:05.701Z,22.77
2018-11-03T22:30:35.493Z,21.93
2018-11-03T22:33:05.289Z,22.30
2018-11-03T22:35:34.909Z,23.63
2018-11-03T22:38:04.719Z,23.40
2018-11-03T22:40:34.414Z,23.50
2018-11-03T22:43:04.034Z,21.77
2018-11-03T22:45:33.770Z,22.13
2018-11-03T22:48:02.411Z,22.60
2018-11-03T22:50:31.000Z,21.30
2018-11-03T22:52:59.642Z,22.53
2018-11-03T22:55:28.239Z,22.40
2018-11-03T22:57:56.806Z,21.47
2018-11-03T23:00:25.379Z,22.03
2018-11-03T23:02:53.988Z,22.33
2018-11-03T23:05:22.548Z,22.20
2018-11-03T23:07:51.194Z,23.17
2018-11-03T23:10:19.757Z,22.70
2018-11-03T23:12:48.373Z,23.17
2018-11-03T23:15:16.925Z,22.93
2018-11-03T23:17:45.508Z,23.10
2018-11-03T23:20:14.598Z,23.93
2018-11-03T23:22:43.182Z,23.60
2018-11-03T23:25:11.766Z,24.03
2018-11-03T23:27:40.404Z,22.20
2018-11-03T23:30:10.755Z,25.20
2018-11-03T23:32:39.416Z,24.50
2018-11-03T23:35:09.808Z,23.60
2018-11-03T23:37:38.401Z,22.87
2018-11-03T23:40:07.676Z,23.60
2018-11-03T23:42:36.265Z,22.17
2018-11-03T23:45:05.558Z,25.00
2018-11-03T23:47:34.156Z,23.27
2018-11-03T23:50:02.768Z,23.20
2018-11-03T23:52:33.691Z,20.97
2018-11-03T23:55:03.672Z,22.63
2018-11-03T23:57:32.255Z,23.73
